Eaton Park, Florida
Current Conditions -  °F | °C
As of 8:50 PM on Friday 24 Oct 2014 (Local Time) from KLAL Reporting Station
Few Clouds Few Clouds  
Wind Chill: 66°   Ceiling: Unl
Heat Index: 66°   Visibility: 12mi
Dew Point: 57°   Wind: 5mph
Humidity: 73%   Direction: 30°NNE
Pressure: 29.94"   Gusts: NA
Location:  28.01°N, 81.91°W
Report Text: KLAL 250050Z 03004KT 12SM FEW050 19/14 A2994
Loading
Personal Weather Stations






























Interactive Weather Map
Tropical Storm Tracking
New forecast layout! Learn more

10-Day Weather Forecast

Advertisements
Track Severe Weather on mobile